sensor_id;sensor_type;location;lat;lon;timestamp;P1;P2;P0
55754;PMS5003;41674;52.290;-1.474;2022-12-10T00:01:55;60;56;
55754;PMS5003;41674;52.290;-1.474;2022-12-10T00:04:24;64;55;
55754;PMS5003;41674;52.290;-1.474;2022-12-10T00:06:54;63;59;
55754;PMS5003;41674;52.290;-1.474;2022-12-10T00:09:23;53;48;
55754;PMS5003;41674;52.290;-1.474;2022-12-10T00:11:53;58;54;
55754;PMS5003;41674;52.290;-1.474;2022-12-10T00:14:22;68;60;
55754;PMS5003;41674;52.290;-1.474;2022-12-10T00:16:51;76;70;
55754;PMS5003;41674;52.290;-1.474;2022-12-10T00:19:20;73;64;
55754;PMS5003;41674;52.290;-1.474;2022-12-10T00:24:19;72;61;
55754;PMS5003;41674;52.290;-1.474;2022-12-10T00:26:48;67;64;
55754;PMS5003;41674;52.290;-1.474;2022-12-10T00:29:18;69;62;
55754;PMS5003;41674;52.290;-1.474;2022-12-10T00:31:47;64;60;
55754;PMS5003;41674;52.290;-1.474;2022-12-10T00:34:16;62;56;
55754;PMS5003;41674;52.290;-1.474;2022-12-10T00:36:46;73;67;
55754;PMS5003;41674;52.290;-1.474;2022-12-10T00:39:15;73;63;
55754;PMS5003;41674;52.290;-1.474;2022-12-10T00:41:44;70;65;
55754;PMS5003;41674;52.290;-1.474;2022-12-10T00:44:14;76;70;
55754;PMS5003;41674;52.290;-1.474;2022-12-10T00:46:42;70;63;
55754;PMS5003;41674;52.290;-1.474;2022-12-10T00:49:12;65;63;
55754;PMS5003;41674;52.290;-1.474;2022-12-10T00:51:41;63;56;
55754;PMS5003;41674;52.290;-1.474;2022-12-10T00:54:11;59;51;
55754;PMS5003;41674;52.290;-1.474;2022-12-10T00:56:41;66;52;
55754;PMS5003;41674;52.290;-1.474;2022-12-10T00:59:10;51;49;
55754;PMS5003;41674;52.290;-1.474;2022-12-10T01:04:12;59;52;
55754;PMS5003;41674;52.290;-1.474;2022-12-10T01:06:41;55;51;
55754;PMS5003;41674;52.290;-1.474;2022-12-10T01:09:09;55;47;
55754;PMS5003;41674;52.290;-1.474;2022-12-10T01:11:38;56;48;
55754;PMS5003;41674;52.290;-1.474;2022-12-10T01:14:09;51;45;
55754;PMS5003;41674;52.290;-1.474;2022-12-10T01:16:37;57;50;
55754;PMS5003;41674;52.290;-1.474;2022-12-10T01:19:06;50;47;
55754;PMS5003;41674;52.290;-1.474;2022-12-10T01:21:35;53;47;
55754;PMS5003;41674;52.290;-1.474;2022-12-10T01:24:05;62;53;
55754;PMS5003;41674;52.290;-1.474;2022-12-10T01:26:34;61;56;
55754;PMS5003;41674;52.290;-1.474;2022-12-10T01:29:04;54;49;
55754;PMS5003;41674;52.290;-1.474;2022-12-10T01:31:35;57;50;
55754;PMS5003;41674;52.290;-1.474;2022-12-10T01:34:04;55;50;
55754;PMS5003;41674;52.290;-1.474;2022-12-10T01:36:32;58;52;
55754;PMS5003;41674;52.290;-1.474;2022-12-10T01:39:02;56;49;
55754;PMS5003;41674;52.290;-1.474;2022-12-10T01:41:32;52;46;
55754;PMS5003;41674;52.290;-1.474;2022-12-10T01:44:00;52;46;
55754;PMS5003;41674;52.290;-1.474;2022-12-10T01:46:30;48;43;
55754;PMS5003;41674;52.290;-1.474;2022-12-10T01:48:59;48;41;
55754;PMS5003;41674;52.290;-1.474;2022-12-10T01:51:31;43;40;
55754;PMS5003;41674;52.290;-1.474;2022-12-10T01:53:58;50;46;
55754;PMS5003;41674;52.290;-1.474;2022-12-10T01:56:34;42;38;
55754;PMS5003;41674;52.290;-1.474;2022-12-10T01:58:57;43;41;
55754;PMS5003;41674;52.290;-1.474;2022-12-10T02:01:28;47;42;
55754;PMS5003;41674;52.290;-1.474;2022-12-10T02:03:57;44;42;
55754;PMS5003;41674;52.290;-1.474;2022-12-10T02:06:28;46;38;
55754;PMS5003;41674;52.290;-1.474;2022-12-10T02:08:55;39;37;
55754;PMS5003;41674;52.290;-1.474;2022-12-10T02:11:24;39;35;
55754;PMS5003;41674;52.290;-1.474;2022-12-10T02:13:53;42;38;
55754;PMS5003;41674;52.290;-1.474;2022-12-10T02:16:23;41;39;
55754;PMS5003;41674;52.290;-1.474;2022-12-10T02:18:53;37;35;
55754;PMS5003;41674;52.290;-1.474;2022-12-10T02:21:21;39;37;
55754;PMS5003;41674;52.290;-1.474;2022-12-10T02:23:51;37;33;
55754;PMS5003;41674;52.290;-1.474;2022-12-10T02:26:21;31;31;
55754;PMS5003;41674;52.290;-1.474;2022-12-10T02:28:49;33;32;
55754;PMS5003;41674;52.290;-1.474;2022-12-10T02:31:18;40;33;
55754;PMS5003;41674;52.290;-1.474;2022-12-10T02:33:49;37;32;
55754;PMS5003;41674;52.290;-1.474;2022-12-10T02:36:16;35;31;
55754;PMS5003;41674;52.290;-1.474;2022-12-10T02:38:45;34;30;
55754;PMS5003;41674;52.290;-1.474;2022-12-10T02:41:16;42;38;
55754;PMS5003;41674;52.290;-1.474;2022-12-10T02:43:45;35;35;
55754;PMS5003;41674;52.290;-1.474;2022-12-10T02:46:15;35;32;
55754;PMS5003;41674;52.290;-1.474;2022-12-10T02:48:44;37;32;
55754;PMS5003;41674;52.290;-1.474;2022-12-10T02:51:14;39;35;
55754;PMS5003;41674;52.290;-1.474;2022-12-10T02:53:44;41;38;
55754;PMS5003;41674;52.290;-1.474;2022-12-10T02:56:14;39;34;
55754;PMS5003;41674;52.290;-1.474;2022-12-10T02:58:45;40;33;
55754;PMS5003;41674;52.290;-1.474;2022-12-10T03:01:15;36;34;
55754;PMS5003;41674;52.290;-1.474;2022-12-10T03:03:43;34;30;
55754;PMS5003;41674;52.290;-1.474;2022-12-10T03:06:12;42;40;
55754;PMS5003;41674;52.290;-1.474;2022-12-10T03:08:42;33;33;
55754;PMS5003;41674;52.290;-1.474;2022-12-10T03:11:11;45;39;
55754;PMS5003;41674;52.290;-1.474;2022-12-10T03:13:41;42;36;
55754;PMS5003;41674;52.290;-1.474;2022-12-10T03:16:08;37;34;
55754;PMS5003;41674;52.290;-1.474;2022-12-10T03:21:07;45;35;
55754;PMS5003;41674;52.290;-1.474;2022-12-10T03:23:37;42;38;
55754;PMS5003;41674;52.290;-1.474;2022-12-10T03:26:05;51;41;
55754;PMS5003;41674;52.290;-1.474;2022-12-10T03:28:36;55;50;
55754;PMS5003;41674;52.290;-1.474;2022-12-10T03:31:04;47;45;
55754;PMS5003;41674;52.290;-1.474;2022-12-10T03:33:33;39;34;
55754;PMS5003;41674;52.290;-1.474;2022-12-10T03:36:03;40;35;
55754;PMS5003;41674;52.290;-1.474;2022-12-10T03:38:32;45;40;
55754;PMS5003;41674;52.290;-1.474;2022-12-10T03:41:01;41;40;
55754;PMS5003;41674;52.290;-1.474;2022-12-10T03:43:31;45;41;
55754;PMS5003;41674;52.290;-1.474;2022-12-10T03:46:00;39;38;
55754;PMS5003;41674;52.290;-1.474;2022-12-10T03:48:30;38;35;
55754;PMS5003;41674;52.290;-1.474;2022-12-10T03:51:00;47;43;
55754;PMS5003;41674;52.290;-1.474;2022-12-10T03:53:29;43;36;
55754;PMS5003;41674;52.290;-1.474;2022-12-10T03:55:59;44;40;
55754;PMS5003;41674;52.290;-1.474;2022-12-10T03:58:28;40;35;
55754;PMS5003;41674;52.290;-1.474;2022-12-10T04:00:57;36;32;
55754;PMS5003;41674;52.290;-1.474;2022-12-10T04:03:26;40;38;
55754;PMS5003;41674;52.290;-1.474;2022-12-10T04:06:00;36;32;
55754;PMS5003;41674;52.290;-1.474;2022-12-10T04:08:26;36;35;
55754;PMS5003;41674;52.290;-1.474;2022-12-10T04:10:55;32;27;
55754;PMS5003;41674;52.290;-1.474;2022-12-10T04:13:24;46;44;
55754;PMS5003;41674;52.290;-1.474;2022-12-10T04:15:55;36;36;
55754;PMS5003;41674;52.290;-1.474;2022-12-10T04:18:23;36;32;
55754;PMS5003;41674;52.290;-1.474;2022-12-10T04:20:52;31;26;
55754;PMS5003;41674;52.290;-1.474;2022-12-10T04:23:21;33;33;
55754;PMS5003;41674;52.290;-1.474;2022-12-10T04:25:51;31;30;
55754;PMS5003;41674;52.290;-1.474;2022-12-10T04:28:21;30;29;
55754;PMS5003;41674;52.290;-1.474;2022-12-10T04:30:51;35;30;
55754;PMS5003;41674;52.290;-1.474;2022-12-10T04:33:21;33;30;
55754;PMS5003;41674;52.290;-1.474;2022-12-10T04:35:50;43;40;
55754;PMS5003;41674;52.290;-1.474;2022-12-10T04:38:20;41;36;
55754;PMS5003;41674;52.290;-1.474;2022-12-10T04:40:49;37;31;
55754;PMS5003;41674;52.290;-1.474;2022-12-10T04:43:19;34;28;
55754;PMS5003;41674;52.290;-1.474;2022-12-10T04:45:48;31;29;
55754;PMS5003;41674;52.290;-1.474;2022-12-10T04:48:18;34;30;
55754;PMS5003;41674;52.290;-1.474;2022-12-10T04:50:47;36;33;
55754;PMS5003;41674;52.290;-1.474;2022-12-10T04:53:17;33;27;
55754;PMS5003;41674;52.290;-1.474;2022-12-10T04:55:47;33;30;
55754;PMS5003;41674;52.290;-1.474;2022-12-10T04:58:16;37;33;
55754;PMS5003;41674;52.290;-1.474;2022-12-10T05:00:46;34;32;
55754;PMS5003;41674;52.290;-1.474;2022-12-10T05:03:16;28;28;
55754;PMS5003;41674;52.290;-1.474;2022-12-10T05:05:46;35;33;
55754;PMS5003;41674;52.290;-1.474;2022-12-10T05:08:15;31;30;
55754;PMS5003;41674;52.290;-1.474;2022-12-10T05:10:44;33;30;
55754;PMS5003;41674;52.290;-1.474;2022-12-10T05:13:14;33;30;
55754;PMS5003;41674;52.290;-1.474;2022-12-10T05:15:43;31;28;
55754;PMS5003;41674;52.290;-1.474;2022-12-10T05:18:13;38;30;
55754;PMS5003;41674;52.290;-1.474;2022-12-10T05:20:43;38;34;
55754;PMS5003;41674;52.290;-1.474;2022-12-10T05:23:12;36;31;
55754;PMS5003;41674;52.290;-1.474;2022-12-10T05:25:42;28;24;
55754;PMS5003;41674;52.290;-1.474;2022-12-10T05:28:11;32;29;
55754;PMS5003;41674;52.290;-1.474;2022-12-10T05:30:41;26;26;
55754;PMS5003;41674;52.290;-1.474;2022-12-10T05:33:10;30;30;
55754;PMS5003;41674;52.290;-1.474;2022-12-10T05:35:40;31;29;
55754;PMS5003;41674;52.290;-1.474;2022-12-10T05:38:10;28;28;
55754;PMS5003;41674;52.290;-1.474;2022-12-10T05:40:39;28;26;
55754;PMS5003;41674;52.290;-1.474;2022-12-10T05:43:09;33;29;
55754;PMS5003;41674;52.290;-1.474;2022-12-10T05:45:38;34;30;
55754;PMS5003;41674;52.290;-1.474;2022-12-10T05:48:08;34;29;
55754;PMS5003;41674;52.290;-1.474;2022-12-10T05:50:37;31;30;
55754;PMS5003;41674;52.290;-1.474;2022-12-10T05:53:07;28;25;
55754;PMS5003;41674;52.290;-1.474;2022-12-10T05:55:36;28;26;
55754;PMS5003;41674;52.290;-1.474;2022-12-10T05:58:06;30;29;
55754;PMS5003;41674;52.290;-1.474;2022-12-10T06:00:38;28;28;
55754;PMS5003;41674;52.290;-1.474;2022-12-10T06:03:05;44;41;
55754;PMS5003;41674;52.290;-1.474;2022-12-10T06:05:35;82;79;
55754;PMS5003;41674;52.290;-1.474;2022-12-10T06:08:03;45;42;
55754;PMS5003;41674;52.290;-1.474;2022-12-10T06:10:33;36;33;
55754;PMS5003;41674;52.290;-1.474;2022-12-10T06:15:31;28;26;
55754;PMS5003;41674;52.290;-1.474;2022-12-10T06:18:01;30;30;
55754;PMS5003;41674;52.290;-1.474;2022-12-10T06:20:30;35;32;
55754;PMS5003;41674;52.290;-1.474;2022-12-10T06:23:00;35;32;
55754;PMS5003;41674;52.290;-1.474;2022-12-10T06:25:29;36;32;
55754;PMS5003;41674;52.290;-1.474;2022-12-10T06:27:59;29;26;
55754;PMS5003;41674;52.290;-1.474;2022-12-10T06:30:29;35;27;
55754;PMS5003;41674;52.290;-1.474;2022-12-10T06:33:03;51;45;
55754;PMS5003;41674;52.290;-1.474;2022-12-10T06:35:28;34;29;
55754;PMS5003;41674;52.290;-1.474;2022-12-10T06:37:57;31;29;
55754;PMS5003;41674;52.290;-1.474;2022-12-10T06:40:27;32;29;
55754;PMS5003;41674;52.290;-1.474;2022-12-10T06:42:56;28;28;
55754;PMS5003;41674;52.290;-1.474;2022-12-10T06:45:25;50;42;
55754;PMS5003;41674;52.290;-1.474;2022-12-10T06:47:54;29;25;
55754;PMS5003;41674;52.290;-1.474;2022-12-10T06:50:24;31;28;
55754;PMS5003;41674;52.290;-1.474;2022-12-10T06:52:53;27;26;
55754;PMS5003;41674;52.290;-1.474;2022-12-10T06:55:23;31;29;
55754;PMS5003;41674;52.290;-1.474;2022-12-10T06:57:53;32;27;
55754;PMS5003;41674;52.290;-1.474;2022-12-10T07:00:22;39;28;
55754;PMS5003;41674;52.290;-1.474;2022-12-10T07:02:51;32;28;
55754;PMS5003;41674;52.290;-1.474;2022-12-10T07:05:20;31;26;
55754;PMS5003;41674;52.290;-1.474;2022-12-10T07:07:50;28;28;
55754;PMS5003;41674;52.290;-1.474;2022-12-10T07:10:19;37;31;
55754;PMS5003;41674;52.290;-1.474;2022-12-10T07:12:49;36;34;
55754;PMS5003;41674;52.290;-1.474;2022-12-10T07:15:19;36;35;
55754;PMS5003;41674;52.290;-1.474;2022-12-10T07:17:50;39;36;
55754;PMS5003;41674;52.290;-1.474;2022-12-10T07:20:18;36;33;
55754;PMS5003;41674;52.290;-1.474;2022-12-10T07:22:47;36;29;
55754;PMS5003;41674;52.290;-1.474;2022-12-10T07:25:16;35;33;
55754;PMS5003;41674;52.290;-1.474;2022-12-10T07:27:46;31;31;
55754;PMS5003;41674;52.290;-1.474;2022-12-10T07:30:15;34;32;
55754;PMS5003;41674;52.290;-1.474;2022-12-10T07:32:45;34;34;
55754;PMS5003;41674;52.290;-1.474;2022-12-10T07:35:15;33;32;
55754;PMS5003;41674;52.290;-1.474;2022-12-10T07:37:44;37;32;
55754;PMS5003;41674;52.290;-1.474;2022-12-10T07:40:13;32;29;
55754;PMS5003;41674;52.290;-1.474;2022-12-10T07:42:43;32;27;
55754;PMS5003;41674;52.290;-1.474;2022-12-10T07:45:13;34;30;
55754;PMS5003;41674;52.290;-1.474;2022-12-10T07:47:43;40;31;
55754;PMS5003;41674;52.290;-1.474;2022-12-10T07:50:12;35;31;
55754;PMS5003;41674;52.290;-1.474;2022-12-10T07:52:42;34;33;
55754;PMS5003;41674;52.290;-1.474;2022-12-10T07:55:11;32;31;
55754;PMS5003;41674;52.290;-1.474;2022-12-10T07:57:41;104;94;
55754;PMS5003;41674;52.290;-1.474;2022-12-10T08:00:11;64;57;
55754;PMS5003;41674;52.290;-1.474;2022-12-10T08:02:40;63;57;
55754;PMS5003;41674;52.290;-1.474;2022-12-10T08:05:10;62;56;
55754;PMS5003;41674;52.290;-1.474;2022-12-10T08:07:39;38;36;
55754;PMS5003;41674;52.290;-1.474;2022-12-10T08:10:08;32;30;
55754;PMS5003;41674;52.290;-1.474;2022-12-10T08:12:38;34;32;
55754;PMS5003;41674;52.290;-1.474;2022-12-10T08:15:08;28;28;
55754;PMS5003;41674;52.290;-1.474;2022-12-10T08:17:37;32;29;
55754;PMS5003;41674;52.290;-1.474;2022-12-10T08:20:07;32;29;
55754;PMS5003;41674;52.290;-1.474;2022-12-10T08:22:36;31;29;
55754;PMS5003;41674;52.290;-1.474;2022-12-10T08:25:06;36;32;
55754;PMS5003;41674;52.290;-1.474;2022-12-10T08:27:35;32;29;
55754;PMS5003;41674;52.290;-1.474;2022-12-10T08:30:05;34;30;
55754;PMS5003;41674;52.290;-1.474;2022-12-10T08:32:34;32;31;
55754;PMS5003;41674;52.290;-1.474;2022-12-10T08:35:04;28;24;
55754;PMS5003;41674;52.290;-1.474;2022-12-10T08:37:33;37;30;
55754;PMS5003;41674;52.290;-1.474;2022-12-10T08:42:32;30;28;
55754;PMS5003;41674;52.290;-1.474;2022-12-10T08:45:02;24;22;
55754;PMS5003;41674;52.290;-1.474;2022-12-10T08:47:31;30;26;
55754;PMS5003;41674;52.290;-1.474;2022-12-10T08:50:02;26;25;
55754;PMS5003;41674;52.290;-1.474;2022-12-10T08:52:31;28;28;
55754;PMS5003;41674;52.290;-1.474;2022-12-10T08:55:00;27;27;
55754;PMS5003;41674;52.290;-1.474;2022-12-10T08:57:29;28;28;
55754;PMS5003;41674;52.290;-1.474;2022-12-10T09:00:04;28;28;
55754;PMS5003;41674;52.290;-1.474;2022-12-10T09:04:58;34;31;
55754;PMS5003;41674;52.290;-1.474;2022-12-10T09:07:28;38;33;
55754;PMS5003;41674;52.290;-1.474;2022-12-10T09:09:57;31;27;
55754;PMS5003;41674;52.290;-1.474;2022-12-10T09:12:26;34;29;
55754;PMS5003;41674;52.290;-1.474;2022-12-10T09:14:55;34;28;
55754;PMS5003;41674;52.290;-1.474;2022-12-10T09:17:25;28;27;
55754;PMS5003;41674;52.290;-1.474;2022-12-10T09:19:55;41;36;
55754;PMS5003;41674;52.290;-1.474;2022-12-10T09:22:24;142;125;
55754;PMS5003;41674;52.290;-1.474;2022-12-10T09:24:54;135;124;
55754;PMS5003;41674;52.290;-1.474;2022-12-10T09:27:23;57;49;
55754;PMS5003;41674;52.290;-1.474;2022-12-10T09:29:52;40;37;
55754;PMS5003;41674;52.290;-1.474;2022-12-10T09:32:21;47;42;
55754;PMS5003;41674;52.290;-1.474;2022-12-10T09:34:51;47;41;
55754;PMS5003;41674;52.290;-1.474;2022-12-10T09:37:20;74;69;
55754;PMS5003;41674;52.290;-1.474;2022-12-10T09:39:51;51;44;
55754;PMS5003;41674;52.290;-1.474;2022-12-10T09:42:22;45;39;
55754;PMS5003;41674;52.290;-1.474;2022-12-10T09:44:51;47;41;
55754;PMS5003;41674;52.290;-1.474;2022-12-10T09:47:18;49;42;
55754;PMS5003;41674;52.290;-1.474;2022-12-10T09:49:51;63;51;
55754;PMS5003;41674;52.290;-1.474;2022-12-10T09:52:17;43;40;
55754;PMS5003;41674;52.290;-1.474;2022-12-10T09:54:48;46;38;
55754;PMS5003;41674;52.290;-1.474;2022-12-10T09:57:18;47;40;
55754;PMS5003;41674;52.290;-1.474;2022-12-10T09:59:46;50;42;
55754;PMS5003;41674;52.290;-1.474;2022-12-10T10:02:19;43;39;
55754;PMS5003;41674;52.290;-1.474;2022-12-10T10:04:44;39;38;
55754;PMS5003;41674;52.290;-1.474;2022-12-10T10:07:16;41;37;
55754;PMS5003;41674;52.290;-1.474;2022-12-10T10:09:42;48;41;
55754;PMS5003;41674;52.290;-1.474;2022-12-10T10:12:12;47;43;
55754;PMS5003;41674;52.290;-1.474;2022-12-10T10:14:42;45;40;
55754;PMS5003;41674;52.290;-1.474;2022-12-10T10:17:12;48;42;
55754;PMS5003;41674;52.290;-1.474;2022-12-10T10:19:40;44;39;
55754;PMS5003;41674;52.290;-1.474;2022-12-10T10:22:09;43;38;
55754;PMS5003;41674;52.290;-1.474;2022-12-10T10:24:39;44;38;
55754;PMS5003;41674;52.290;-1.474;2022-12-10T10:27:12;48;41;
55754;PMS5003;41674;52.290;-1.474;2022-12-10T10:29:38;41;37;
55754;PMS5003;41674;52.290;-1.474;2022-12-10T10:32:11;40;33;
55754;PMS5003;41674;52.290;-1.474;2022-12-10T10:34:38;41;38;
55754;PMS5003;41674;52.290;-1.474;2022-12-10T10:37:06;31;30;
55754;PMS5003;41674;52.290;-1.474;2022-12-10T10:39:35;48;43;
55754;PMS5003;41674;52.290;-1.474;2022-12-10T10:42:07;40;35;
55754;PMS5003;41674;52.290;-1.474;2022-12-10T10:44:35;39;35;
55754;PMS5003;41674;52.290;-1.474;2022-12-10T10:47:23;36;33;
55754;PMS5003;41674;52.290;-1.474;2022-12-10T10:49:33;35;34;
55754;PMS5003;41674;52.290;-1.474;2022-12-10T10:52:04;38;35;
55754;PMS5003;41674;52.290;-1.474;2022-12-10T10:54:33;42;36;
55754;PMS5003;41674;52.290;-1.474;2022-12-10T10:57:10;35;34;
55754;PMS5003;41674;52.290;-1.474;2022-12-10T10:59:31;39;33;
55754;PMS5003;41674;52.290;-1.474;2022-12-10T11:02:02;39;37;
55754;PMS5003;41674;52.290;-1.474;2022-12-10T11:04:30;36;36;
55754;PMS5003;41674;52.290;-1.474;2022-12-10T11:06:59;37;35;
55754;PMS5003;41674;52.290;-1.474;2022-12-10T11:09:30;39;32;
55754;PMS5003;41674;52.290;-1.474;2022-12-10T11:11:59;42;37;
55754;PMS5003;41674;52.290;-1.474;2022-12-10T11:14:30;42;33;
55754;PMS5003;41674;52.290;-1.474;2022-12-10T11:17:00;44;37;
55754;PMS5003;41674;52.290;-1.474;2022-12-10T11:19:27;33;29;
55754;PMS5003;41674;52.290;-1.474;2022-12-10T11:21:59;31;31;
55754;PMS5003;41674;52.290;-1.474;2022-12-10T11:24:25;43;33;
55754;PMS5003;41674;52.290;-1.474;2022-12-10T11:26:57;31;27;
55754;PMS5003;41674;52.290;-1.474;2022-12-10T11:29:28;30;30;
55754;PMS5003;41674;52.290;-1.474;2022-12-10T11:31:57;31;24;
55754;PMS5003;41674;52.290;-1.474;2022-12-10T11:34:27;43;41;
55754;PMS5003;41674;52.290;-1.474;2022-12-10T11:39:27;42;35;
55754;PMS5003;41674;52.290;-1.474;2022-12-10T11:41:58;39;37;
55754;PMS5003;41674;52.290;-1.474;2022-12-10T11:44:23;42;37;
55754;PMS5003;41674;52.290;-1.474;2022-12-10T11:46:55;45;39;
55754;PMS5003;41674;52.290;-1.474;2022-12-10T11:49:22;33;28;
55754;PMS5003;41674;52.290;-1.474;2022-12-10T11:51:51;43;37;
55754;PMS5003;41674;52.290;-1.474;2022-12-10T11:54:23;45;43;
55754;PMS5003;41674;52.290;-1.474;2022-12-10T11:56:49;45;32;
55754;PMS5003;41674;52.290;-1.474;2022-12-10T11:59:19;32;25;
55754;PMS5003;41674;52.290;-1.474;2022-12-10T12:01:51;61;51;
55754;PMS5003;41674;52.290;-1.474;2022-12-10T12:06:52;23;21;
55754;PMS5003;41674;52.290;-1.474;2022-12-10T12:09:17;26;20;
55754;PMS5003;41674;52.290;-1.474;2022-12-10T12:11:49;21;21;
55754;PMS5003;41674;52.290;-1.474;2022-12-10T12:14:16;22;20;
55754;PMS5003;41674;52.290;-1.474;2022-12-10T12:16:44;20;17;
55754;PMS5003;41674;52.290;-1.474;2022-12-10T12:19:13;19;17;
55754;PMS5003;41674;52.290;-1.474;2022-12-10T12:21:42;19;17;
55754;PMS5003;41674;52.290;-1.474;2022-12-10T12:24:13;17;14;
55754;PMS5003;41674;52.290;-1.474;2022-12-10T12:26:42;20;17;
55754;PMS5003;41674;52.290;-1.474;2022-12-10T12:29:13;21;20;
55754;PMS5003;41674;52.290;-1.474;2022-12-10T12:31:41;17;16;
55754;PMS5003;41674;52.290;-1.474;2022-12-10T12:34:13;23;19;
55754;PMS5003;41674;52.290;-1.474;2022-12-10T12:36:39;17;15;
55754;PMS5003;41674;52.290;-1.474;2022-12-10T12:39:11;17;17;
55754;PMS5003;41674;52.290;-1.474;2022-12-10T12:41:45;18;18;
55754;PMS5003;41674;52.290;-1.474;2022-12-10T12:44:09;19;16;
55754;PMS5003;41674;52.290;-1.474;2022-12-10T12:46:38;22;20;
55754;PMS5003;41674;52.290;-1.474;2022-12-10T12:49:09;21;19;
55754;PMS5003;41674;52.290;-1.474;2022-12-10T12:51:37;22;18;
55754;PMS5003;41674;52.290;-1.474;2022-12-10T12:54:06;20;19;
55754;PMS5003;41674;52.290;-1.474;2022-12-10T12:56:39;21;19;
55754;PMS5003;41674;52.290;-1.474;2022-12-10T12:59:05;21;18;
55754;PMS5003;41674;52.290;-1.474;2022-12-10T13:01:33;17;16;
55754;PMS5003;41674;52.290;-1.474;2022-12-10T13:04:02;20;19;
55754;PMS5003;41674;52.290;-1.474;2022-12-10T13:06:33;22;20;
55754;PMS5003;41674;52.290;-1.474;2022-12-10T13:11:33;17;17;
55754;PMS5003;41674;52.290;-1.474;2022-12-10T13:16:36;10;9;
55754;PMS5003;41674;52.290;-1.474;2022-12-10T13:21:30;30;24;
55754;PMS5003;41674;52.290;-1.474;2022-12-10T13:24:05;14;12;
55754;PMS5003;41674;52.290;-1.474;2022-12-10T13:26:29;14;14;
55754;PMS5003;41674;52.290;-1.474;2022-12-10T13:36:28;15;11;
55754;PMS5003;41674;52.290;-1.474;2022-12-10T13:38:58;22;16;
55754;PMS5003;41674;52.290;-1.474;2022-12-10T13:41:25;14;14;
55754;PMS5003;41674;52.290;-1.474;2022-12-10T13:43:56;11;9;
55754;PMS5003;41674;52.290;-1.474;2022-12-10T13:46:26;12;12;
55754;PMS5003;41674;52.290;-1.474;2022-12-10T13:48:54;15;13;
55754;PMS5003;41674;52.290;-1.474;2022-12-10T13:51:26;16;15;
55754;PMS5003;41674;52.290;-1.474;2022-12-10T13:53:57;13;11;
55754;PMS5003;41674;52.290;-1.474;2022-12-10T13:56:28;12;11;
55754;PMS5003;41674;52.290;-1.474;2022-12-10T13:58:54;13;11;
55754;PMS5003;41674;52.290;-1.474;2022-12-10T14:01:25;13;13;
55754;PMS5003;41674;52.290;-1.474;2022-12-10T14:03:56;10;9;
55754;PMS5003;41674;52.290;-1.474;2022-12-10T14:06:21;16;14;
55754;PMS5003;41674;52.290;-1.474;2022-12-10T14:08:54;12;12;
55754;PMS5003;41674;52.290;-1.474;2022-12-10T14:11:21;13;12;
55754;PMS5003;41674;52.290;-1.474;2022-12-10T14:13:51;17;16;
55754;PMS5003;41674;52.290;-1.474;2022-12-10T14:16:20;15;14;
55754;PMS5003;41674;52.290;-1.474;2022-12-10T14:18:55;14;14;
55754;PMS5003;41674;52.290;-1.474;2022-12-10T14:23:54;47;41;
55754;PMS5003;41674;52.290;-1.474;2022-12-10T14:26:19;16;15;
55754;PMS5003;41674;52.290;-1.474;2022-12-10T14:28:49;21;21;
55754;PMS5003;41674;52.290;-1.474;2022-12-10T14:31:18;34;33;
55754;PMS5003;41674;52.290;-1.474;2022-12-10T14:33:48;13;13;
55754;PMS5003;41674;52.290;-1.474;2022-12-10T14:36:26;14;12;
55754;PMS5003;41674;52.290;-1.474;2022-12-10T14:38:46;12;11;
55754;PMS5003;41674;52.290;-1.474;2022-12-10T14:41:17;14;13;
55754;PMS5003;41674;52.290;-1.474;2022-12-10T14:43:45;12;10;
55754;PMS5003;41674;52.290;-1.474;2022-12-10T14:46:16;22;21;
55754;PMS5003;41674;52.290;-1.474;2022-12-10T14:48:44;11;11;
55754;PMS5003;41674;52.290;-1.474;2022-12-10T14:51:15;12;11;
55754;PMS5003;41674;52.290;-1.474;2022-12-10T14:53:44;9;8;
55754;PMS5003;41674;52.290;-1.474;2022-12-10T14:56:14;12;10;
55754;PMS5003;41674;52.290;-1.474;2022-12-10T14:58:44;16;12;
55754;PMS5003;41674;52.290;-1.474;2022-12-10T15:01:14;10;10;
55754;PMS5003;41674;52.290;-1.474;2022-12-10T15:03:43;13;12;
55754;PMS5003;41674;52.290;-1.474;2022-12-10T15:06:12;13;13;
55754;PMS5003;41674;52.290;-1.474;2022-12-10T15:08:42;12;11;
55754;PMS5003;41674;52.290;-1.474;2022-12-10T15:11:13;17;13;
55754;PMS5003;41674;52.290;-1.474;2022-12-10T15:13:41;13;12;
55754;PMS5003;41674;52.290;-1.474;2022-12-10T15:16:15;11;11;
55754;PMS5003;41674;52.290;-1.474;2022-12-10T15:18:40;12;10;
55754;PMS5003;41674;52.290;-1.474;2022-12-10T15:21:11;12;11;
55754;PMS5003;41674;52.290;-1.474;2022-12-10T15:23:40;16;13;
55754;PMS5003;41674;52.290;-1.474;2022-12-10T15:26:13;13;12;
55754;PMS5003;41674;52.290;-1.474;2022-12-10T15:28:39;18;14;
55754;PMS5003;41674;52.290;-1.474;2022-12-10T15:31:10;15;12;
55754;PMS5003;41674;52.290;-1.474;2022-12-10T15:33:40;13;12;
55754;PMS5003;41674;52.290;-1.474;2022-12-10T15:36:11;16;15;
55754;PMS5003;41674;52.290;-1.474;2022-12-10T15:38:38;19;18;
55754;PMS5003;41674;52.290;-1.474;2022-12-10T15:43:36;18;18;
55754;PMS5003;41674;52.290;-1.474;2022-12-10T15:48:35;30;28;
55754;PMS5003;41674;52.290;-1.474;2022-12-10T15:51:04;25;22;
55754;PMS5003;41674;52.290;-1.474;2022-12-10T15:53:34;25;19;
55754;PMS5003;41674;52.290;-1.474;2022-12-10T15:56:03;21;18;
55754;PMS5003;41674;52.290;-1.474;2022-12-10T15:58:32;18;17;
55754;PMS5003;41674;52.290;-1.474;2022-12-10T16:01:02;22;21;
55754;PMS5003;41674;52.290;-1.474;2022-12-10T16:03:31;19;18;
55754;PMS5003;41674;52.290;-1.474;2022-12-10T16:06:00;19;18;
55754;PMS5003;41674;52.290;-1.474;2022-12-10T16:11:12;28;23;
55754;PMS5003;41674;52.290;-1.474;2022-12-10T16:13:29;23;19;
55754;PMS5003;41674;52.290;-1.474;2022-12-10T16:15:59;21;19;
55754;PMS5003;41674;52.290;-1.474;2022-12-10T16:18:28;22;19;
55754;PMS5003;41674;52.290;-1.474;2022-12-10T16:20:57;18;18;
55754;PMS5003;41674;52.290;-1.474;2022-12-10T16:23:27;18;16;
55754;PMS5003;41674;52.290;-1.474;2022-12-10T16:25:57;14;13;
55754;PMS5003;41674;52.290;-1.474;2022-12-10T16:28:26;13;13;
55754;PMS5003;41674;52.290;-1.474;2022-12-10T16:30:57;13;12;
55754;PMS5003;41674;52.290;-1.474;2022-12-10T16:33:26;14;14;
55754;PMS5003;41674;52.290;-1.474;2022-12-10T16:35:55;12;11;
55754;PMS5003;41674;52.290;-1.474;2022-12-10T16:38:25;10;10;
55754;PMS5003;41674;52.290;-1.474;2022-12-10T16:40:55;12;12;
55754;PMS5003;41674;52.290;-1.474;2022-12-10T16:43:25;14;12;
55754;PMS5003;41674;52.290;-1.474;2022-12-10T16:45:54;13;12;
55754;PMS5003;41674;52.290;-1.474;2022-12-10T16:48:24;14;12;
55754;PMS5003;41674;52.290;-1.474;2022-12-10T16:50:53;13;13;
55754;PMS5003;41674;52.290;-1.474;2022-12-10T16:53:24;11;10;
55754;PMS5003;41674;52.290;-1.474;2022-12-10T16:55:53;12;11;
55754;PMS5003;41674;52.290;-1.474;2022-12-10T16:58:27;13;12;
55754;PMS5003;41674;52.290;-1.474;2022-12-10T17:00:56;13;13;